Time;durP1;ratioP1;P1;durP2;ratioP2;P2;SDS_P1;SDS_P2;PMS_P1;PMS_P2;Temp;Humidity;BMP_temperature;BMP_pressure;BME280_temperature;BME280_humidity;BME280_pressure;Samples;Min_cycle;Max_cycle;Signal;HPM_P1;HPM_P2
2020/12/20 00:01:41;;;;;;;17.92;9.05;;;;;;;2.81;76.92;94412.97;5088788;28;20176;-61
2020/12/20 00:04:07;;;;;;;20.65;9.73;;;;;;;2.72;76.89;94410.34;5093148;28;20115;-61
2020/12/20 00:06:41;;;;;;;15.35;9.27;;;;;;;2.90;76.58;94406.63;5090758;28;20056;-61
2020/12/20 00:09:13;;;;;;;18.48;9.13;;;;;;;2.98;76.95;94408.47;5086233;28;21450;-61
2020/12/20 00:11:43;;;;;;;16.33;8.57;;;;;;;3.06;76.67;94414.25;5084327;28;20038;-61
2020/12/20 00:14:27;;;;;;;29.20;16.73;;;;;;;3.14;76.27;94414.63;5085547;28;20484;-61
2020/12/20 00:17:19;;;;;;;16.73;9.07;;;;;;;3.14;76.18;94412.63;5098113;28;20037;-61
2020/12/20 00:19:44;;;;;;;16.10;8.55;;;;;;;3.06;76.38;94408.81;5097711;28;20051;-62
2020/12/20 00:22:12;;;;;;;22.40;11.20;;;;;;;2.93;76.79;94413.84;5085280;28;20034;-62
2020/12/20 00:24:38;;;;;;;20.17;9.27;;;;;;;2.81;77.36;94410.22;5091311;28;20034;-62
2020/12/20 00:27:04;;;;;;;17.90;9.52;;;;;;;2.70;77.51;94412.81;5100449;28;20048;-62
2020/12/20 00:29:34;;;;;;;22.05;9.90;;;;;;;2.52;78.21;94413.03;5088626;28;20604;-62
2020/12/20 00:32:01;;;;;;;24.98;10.90;;;;;;;2.41;78.54;94415.56;5087850;28;20085;-62
2020/12/20 00:34:27;;;;;;;18.98;8.77;;;;;;;2.50;79.21;94425.63;5102969;28;21597;-62
2020/12/20 00:36:52;;;;;;;25.35;12.05;;;;;;;2.61;78.83;94423.81;5083268;28;20047;-61
2020/12/20 00:39:19;;;;;;;25.08;9.57;;;;;;;2.76;78.81;94426.50;5086086;28;20055;-61
2020/12/20 00:41:52;;;;;;;19.90;9.15;;;;;;;2.81;78.34;94417.66;5092128;28;20449;-61
2020/12/20 00:44:18;;;;;;;18.15;9.32;;;;;;;2.87;78.17;94413.78;5097187;28;20042;-61
2020/12/20 00:46:44;;;;;;;23.60;9.82;;;;;;;2.88;78.04;94420.72;5084955;28;20028;-62
2020/12/20 00:49:09;;;;;;;31.75;11.25;;;;;;;2.89;77.95;94411.31;5090686;28;20073;-61
2020/12/20 00:51:35;;;;;;;16.77;9.10;;;;;;;2.60;77.87;94413.41;5086032;28;20032;-62
2020/12/20 00:54:01;;;;;;;22.02;9.02;;;;;;;2.40;78.16;94400.47;5083298;28;20192;-62
2020/12/20 00:56:27;;;;;;;22.52;9.63;;;;;;;2.45;78.53;94396.31;5099549;28;20118;-61
2020/12/20 00:58:53;;;;;;;17.85;9.15;;;;;;;2.43;78.78;94406.91;5099218;28;20046;-61
2020/12/20 01:01:19;;;;;;;25.48;11.35;;;;;;;2.57;79.03;94408.88;5091498;28;20039;-61
2020/12/20 01:03:45;;;;;;;27.90;10.52;;;;;;;2.58;78.79;94408.41;5084727;28;20110;-61
2020/12/20 01:06:23;;;;;;;24.27;10.85;;;;;;;2.51;78.26;94408.81;5089930;28;20031;-61
2020/12/20 01:08:49;;;;;;;20.75;8.95;;;;;;;2.25;79.22;94411.38;5088196;28;20055;-61
2020/12/20 01:11:15;;;;;;;17.58;7.20;;;;;;;2.25;79.57;94407.91;5089360;28;20692;-61
2020/12/20 01:13:49;;;;;;;16.77;8.20;;;;;;;2.09;79.92;94406.41;5085668;28;20039;-61
2020/12/20 01:16:32;;;;;;;19.77;9.20;;;;;;;2.18;79.98;94411.78;5088923;28;20028;-61
2020/12/20 01:18:59;;;;;;;20.90;9.63;;;;;;;2.41;79.55;94398.47;5082761;28;20016;-61
2020/12/20 01:21:25;;;;;;;18.67;8.77;;;;;;;2.39;79.30;94393.50;5086844;28;20051;-62
2020/12/20 01:23:50;;;;;;;22.05;9.35;;;;;;;2.42;78.94;94389.84;5084010;28;20035;-62
2020/12/20 01:26:16;;;;;;;18.75;8.88;;;;;;;2.44;78.93;94386.63;5095422;28;20487;-62
2020/12/20 01:28:41;;;;;;;17.00;8.55;;;;;;;2.47;78.56;94389.16;5087476;28;20040;-61
2020/12/20 01:31:11;;;;;;;21.33;9.07;;;;;;;2.32;78.95;94391.16;5087680;28;20118;-62
2020/12/20 01:33:37;;;;;;;19.85;8.30;;;;;;;2.54;78.90;94390.72;5090372;28;20035;-62
2020/12/20 01:36:06;;;;;;;19.65;9.68;;;;;;;2.63;77.79;94394.09;5088540;28;20035;-61
2020/12/20 01:38:32;;;;;;;19.50;8.23;;;;;;;2.48;78.18;94403.53;5085455;28;20029;-62
2020/12/20 01:40:58;;;;;;;25.40;9.15;;;;;;;2.54;78.26;94401.63;5082979;28;20036;-61
2020/12/20 01:43:23;;;;;;;23.77;10.13;;;;;;;2.39;78.98;94396.22;5082106;28;20514;-61
2020/12/20 01:45:50;;;;;;;27.00;10.00;;;;;;;2.49;78.87;94394.88;5084829;28;20150;-61
2020/12/20 01:48:15;;;;;;;22.95;8.38;;;;;;;2.53;78.57;94378.34;5087153;28;20085;-61
2020/12/20 01:50:43;;;;;;;22.58;8.52;;;;;;;2.77;77.27;94392.56;5094911;28;20031;-61
2020/12/20 01:53:08;;;;;;;25.45;8.05;;;;;;;2.67;77.39;94381.03;5088822;28;20031;-61
2020/12/20 01:55:34;;;;;;;22.40;9.07;;;;;;;2.47;78.36;94372.81;5084373;28;21450;-61
2020/12/20 01:57:59;;;;;;;18.10;10.27;;;;;;;2.61;78.72;94380.19;5085674;28;20032;-61
2020/12/20 02:00:25;;;;;;;18.25;8.63;;;;;;;2.48;78.02;94357.97;5082797;28;20134;-61
2020/12/20 02:02:50;;;;;;;19.52;9.52;;;;;;;2.57;78.42;94381.63;5084002;28;20038;-61
2020/12/20 02:05:16;;;;;;;18.60;8.90;;;;;;;2.48;78.78;94368.88;5083166;28;20027;-61
2020/12/20 02:07:42;;;;;;;25.05;9.48;;;;;;;2.61;78.30;94372.03;5084644;28;20024;-61
2020/12/20 02:10:08;;;;;;;23.00;8.55;;;;;;;2.58;78.55;94374.97;5087768;28;20034;-61
2020/12/20 02:12:34;;;;;;;16.42;8.40;;;;;;;2.66;77.87;94363.19;5082802;28;20392;-61
2020/12/20 02:15:00;;;;;;;25.80;9.35;;;;;;;2.69;78.35;94380.53;5089620;28;20468;-61
2020/12/20 02:17:25;;;;;;;26.30;9.27;;;;;;;2.51;78.09;94378.06;5081684;28;20034;-61
2020/12/20 02:19:51;;;;;;;22.45;7.38;;;;;;;2.60;78.49;94373.22;5082882;28;20040;-61
2020/12/20 02:22:16;;;;;;;20.02;8.50;;;;;;;2.50;78.22;94380.03;5084302;28;20027;-62
2020/12/20 02:24:42;;;;;;;18.50;8.15;;;;;;;2.20;79.09;94373.16;5096888;28;20028;-62
2020/12/20 02:27:08;;;;;;;22.88;9.27;;;;;;;2.12;79.77;94382.94;5088466;28;20411;-62
2020/12/20 02:29:34;;;;;;;18.83;9.10;;;;;;;2.20;80.51;94384.03;5089212;28;20032;-62
2020/12/20 02:31:59;;;;;;;22.10;9.05;;;;;;;2.16;80.17;94384.25;5085530;28;20098;-62
2020/12/20 02:34:25;;;;;;;30.80;10.25;;;;;;;2.22;80.07;94393.25;5091903;28;20028;-62
2020/12/20 02:36:51;;;;;;;27.05;9.98;;;;;;;2.09;80.38;94386.59;5081209;28;20061;-62
2020/12/20 02:39:16;;;;;;;23.52;8.27;;;;;;;2.06;80.25;94392.97;5082871;28;20031;-62
2020/12/20 02:41:42;;;;;;;21.48;8.57;;;;;;;2.02;80.93;94386.97;5081975;28;20036;-62
2020/12/20 02:44:07;;;;;;;21.38;8.65;;;;;;;2.18;80.51;94389.97;5081216;28;20424;-62
2020/12/20 02:46:33;;;;;;;21.95;9.05;;;;;;;2.24;80.30;94388.09;5083911;28;20035;-62
2020/12/20 02:48:58;;;;;;;25.98;10.23;;;;;;;2.06;81.00;94385.56;5082514;28;20039;-62
2020/12/20 02:51:24;;;;;;;17.25;8.75;;;;;;;1.99;81.55;94396.09;5085501;28;20040;-62
2020/12/20 02:53:50;;;;;;;41.28;9.45;;;;;;;1.88;81.38;94387.75;5101101;28;20057;-62
2020/12/20 02:56:19;;;;;;;23.23;8.45;;;;;;;2.01;81.24;94377.31;5087858;28;20055;-61
2020/12/20 02:58:44;;;;;;;;;;;;;;;2.06;81.69;94380.09;5095846;28;20074;-61
2020/12/20 03:01:10;;;;;;;30.17;8.77;;;;;;;1.99;81.83;94371.59;5084279;28;21751;-61
2020/12/20 03:03:35;;;;;;;28.75;10.20;;;;;;;2.01;82.20;94371.88;5086194;28;20039;-61
2020/12/20 03:06:01;;;;;;;21.10;8.60;;;;;;;2.29;80.85;94364.88;5087919;28;20068;-62
2020/12/20 03:08:26;;;;;;;17.85;8.50;;;;;;;2.24;80.61;94374.47;5086189;28;20043;-62
2020/12/20 03:10:52;;;;;;;24.95;8.88;;;;;;;2.33;79.97;94359.22;5086821;28;20020;-61
2020/12/20 03:13:18;;;;;;;27.35;12.35;;;;;;;2.49;80.43;94373.06;5086049;28;20101;-62
2020/12/20 03:15:44;;;;;;;52.03;18.58;;;;;;;2.52;79.99;94363.97;5084207;28;20225;-61
2020/12/20 03:18:10;;;;;;;27.08;11.07;;;;;;;2.55;79.74;94360.28;5099199;28;20487;-61
2020/12/20 03:20:35;;;;;;;22.75;8.73;;;;;;;2.54;78.89;94363.47;5090176;28;20039;-61
2020/12/20 03:23:01;;;;;;;19.77;8.57;;;;;;;2.37;79.28;94327.81;5088318;28;20036;-62
2020/12/20 03:25:26;;;;;;;28.23;10.68;;;;;;;2.61;79.01;94363.84;5102477;28;20027;-62
2020/12/20 03:27:53;;;;;;;28.80;10.02;;;;;;;2.55;79.32;94357.56;5100927;28;20415;-62
2020/12/20 03:30:18;;;;;;;30.60;11.43;;;;;;;2.69;78.62;94358.72;5093635;28;20136;-62
2020/12/20 03:32:44;;;;;;;21.17;9.35;;;;;;;2.59;78.52;94360.84;5084747;28;20500;-62
2020/12/20 03:35:09;;;;;;;17.30;7.60;;;;;;;2.41;78.75;94366.53;5103619;28;21519;-62
2020/12/20 03:37:35;;;;;;;16.70;8.30;;;;;;;2.43;79.16;94355.13;5104640;28;20471;-61
2020/12/20 03:40:01;;;;;;;23.20;7.88;;;;;;;2.43;78.74;94355.91;5105245;28;20112;-61
2020/12/20 03:42:26;;;;;;;20.38;8.10;;;;;;;2.42;79.02;94370.00;5105981;28;20039;-61
2020/12/20 03:44:52;;;;;;;105.47;29.25;;;;;;;2.54;79.12;94364.22;5088957;28;20147;-61
2020/12/20 03:47:17;;;;;;;129.13;33.83;;;;;;;2.59;78.43;94379.94;5090311;28;20583;-61
2020/12/20 03:49:43;;;;;;;63.40;23.20;;;;;;;2.59;79.11;94374.47;5093511;28;20031;-62
2020/12/20 03:52:08;;;;;;;24.83;11.23;;;;;;;2.55;79.43;94376.66;5102464;28;20040;-61
2020/12/20 03:54:34;;;;;;;20.75;9.40;;;;;;;2.64;79.14;94381.22;5099710;28;20035;-61
2020/12/20 03:56:59;;;;;;;13.57;7.15;;;;;;;2.51;79.21;94378.06;5105406;28;20110;-61
2020/12/20 03:59:25;;;;;;;15.25;7.50;;;;;;;2.51;79.26;94375.34;5101798;28;20158;-61
2020/12/20 04:01:50;;;;;;;17.73;8.65;;;;;;;2.56;79.27;94366.47;5096687;28;20032;-61
2020/12/20 04:04:16;;;;;;;19.13;9.70;;;;;;;2.58;79.04;94372.22;5098557;28;20441;-61
2020/12/20 04:06:42;;;;;;;18.33;8.95;;;;;;;2.66;78.63;94371.34;5083826;28;20050;-61
2020/12/20 04:09:07;;;;;;;19.67;9.55;;;;;;;2.70;78.32;94371.16;5086535;28;20652;-62
2020/12/20 04:11:33;;;;;;;20.02;8.80;;;;;;;2.70;78.35;94376.59;5086904;28;20040;-62
2020/12/20 04:13:58;;;;;;;20.02;9.15;;;;;;;2.65;78.65;94374.53;5089476;28;20028;-62
2020/12/20 04:16:23;;;;;;;16.02;7.57;;;;;;;2.74;78.42;94369.72;5088967;28;20627;-62
2020/12/20 04:18:49;;;;;;;15.65;8.45;;;;;;;2.66;78.20;94363.19;5087758;28;20450;-62
2020/12/20 04:21:15;;;;;;;17.90;8.40;;;;;;;2.61;78.21;94365.81;5087529;28;20054;-62
2020/12/20 04:23:40;;;;;;;10.85;6.55;;;;;;;2.73;78.36;94370.22;5084483;28;20126;-62
2020/12/20 04:26:05;;;;;;;16.25;7.68;;;;;;;2.71;77.62;94370.66;5089644;28;20412;-61
2020/12/20 04:28:31;;;;;;;20.67;9.27;;;;;;;2.68;77.56;94370.88;5087973;28;20048;-62
2020/12/20 04:30:57;;;;;;;12.80;7.65;;;;;;;2.51;77.40;94372.63;5085563;28;20073;-62
2020/12/20 04:33:22;;;;;;;16.00;7.72;;;;;;;2.61;77.41;94377.47;5087872;28;20035;-62
2020/12/20 04:35:48;;;;;;;12.95;7.75;;;;;;;2.67;76.81;94377.53;5089677;28;20757;-62
2020/12/20 04:38:14;;;;;;;12.18;7.53;;;;;;;2.71;76.29;94376.13;5085908;28;20040;-62
2020/12/20 04:40:39;;;;;;;12.18;6.90;;;;;;;2.74;76.22;94377.91;5090001;28;20157;-61
2020/12/20 04:43:07;;;;;;;12.10;6.30;;;;;;;2.77;75.63;94376.22;5086207;28;20040;-61
2020/12/20 04:45:33;;;;;;;10.52;6.25;;;;;;;2.67;75.99;94383.00;5082910;28;20495;-62
2020/12/20 04:47:58;;;;;;;10.45;6.53;;;;;;;2.68;75.82;94376.31;5087967;27;20032;-61
2020/12/20 04:50:25;;;;;;;10.73;6.60;;;;;;;2.59;76.11;94371.00;5086024;28;20024;-61
2020/12/20 04:52:53;;;;;;;10.15;6.32;;;;;;;2.59;76.50;94382.66;5083633;28;20027;-61
2020/12/20 04:55:20;;;;;;;8.07;5.22;;;;;;;2.65;76.58;94386.19;5086857;28;20062;-61
2020/12/20 04:57:46;;;;;;;12.93;6.60;;;;;;;2.70;76.18;94371.16;5101876;28;20023;-61
2020/12/20 05:00:11;;;;;;;9.25;5.65;;;;;;;2.73;76.07;94376.38;5104209;28;20030;-61
2020/12/20 05:02:37;;;;;;;11.50;5.70;;;;;;;2.77;75.54;94381.66;5104117;28;20034;-60
2020/12/20 05:05:03;;;;;;;11.35;6.60;;;;;;;2.72;76.43;94377.63;5084758;28;20032;-61
2020/12/20 05:07:28;;;;;;;12.20;6.13;;;;;;;2.83;76.76;94377.78;5103863;28;20027;-61
2020/12/20 05:09:53;;;;;;;11.98;6.88;;;;;;;2.81;76.16;94377.50;5099848;28;20031;-61
2020/12/20 05:12:26;;;;;;;11.73;7.15;;;;;;;2.84;76.43;94379.25;5104090;28;20118;-61
2020/12/20 05:14:51;;;;;;;17.95;9.93;;;;;;;2.85;76.40;94378.06;5103697;28;20046;-61
2020/12/20 05:17:17;;;;;;;20.17;11.68;;;;;;;2.77;77.09;94376.22;5096577;28;20032;-61
2020/12/20 05:19:43;;;;;;;17.67;10.85;;;;;;;2.81;76.98;94377.50;5091015;28;20042;-61
2020/12/20 05:22:15;;;;;;;21.02;11.45;;;;;;;2.90;77.30;94380.09;5100324;28;20032;-61
2020/12/20 05:24:42;;;;;;;19.73;10.70;;;;;;;2.99;76.72;94384.66;5093550;28;20020;-61
2020/12/20 05:27:28;;;;;;;17.27;10.43;;;;;;;3.00;76.77;94373.28;5096812;28;20051;-61
2020/12/20 05:29:54;;;;;;;16.08;9.45;;;;;;;2.85;75.95;94366.38;5082722;28;20032;-61
2020/12/20 05:32:30;;;;;;;13.32;8.07;;;;;;;2.86;76.88;94379.53;5091387;28;20028;-61
2020/12/20 05:35:07;;;;;;;17.48;10.00;;;;;;;2.82;76.12;94384.44;5096118;28;20023;-61
2020/12/20 05:37:33;;;;;;;29.05;15.60;;;;;;;2.92;76.33;94393.25;5089748;28;20019;-61
2020/12/20 05:40:07;;;;;;;59.72;28.23;;;;;;;2.84;76.50;94389.41;5093553;28;20038;-61
2020/12/20 05:42:33;;;;;;;58.20;28.65;;;;;;;2.89;76.62;94389.50;5084279;28;20042;-61
2020/12/20 05:45:10;;;;;;;39.05;19.60;;;;;;;2.82;77.22;94389.16;5089531;28;20050;-61
2020/12/20 05:47:37;;;;;;;24.05;11.82;;;;;;;2.81;77.02;94382.97;5099998;28;20034;-61
2020/12/20 05:50:04;;;;;;;11.45;6.97;;;;;;;2.90;76.82;94401.91;5087605;28;20077;-62
2020/12/20 05:52:29;;;;;;;12.65;6.78;;;;;;;2.98;76.67;94403.03;5084779;28;20057;-62
2020/12/20 05:54:55;;;;;;;10.73;5.90;;;;;;;2.91;76.35;94402.66;5083533;28;20139;-62
2020/12/20 05:57:22;;;;;;;18.55;9.50;;;;;;;2.94;76.43;94407.94;5085133;28;20039;-62
2020/12/20 05:59:49;;;;;;;15.75;8.90;;;;;;;2.86;76.62;94411.50;5084389;28;20032;-62
2020/12/20 06:02:16;;;;;;;10.15;6.18;;;;;;;2.89;76.22;94408.59;5083414;28;20035;-62
2020/12/20 06:04:42;;;;;;;10.52;6.85;;;;;;;2.84;76.77;94409.25;5084753;28;20046;-62
2020/12/20 06:07:10;;;;;;;12.75;6.00;;;;;;;2.90;76.28;94414.81;5085200;28;21456;-62
2020/12/20 06:09:55;;;;;;;11.23;6.53;;;;;;;2.94;76.86;94416.13;5082044;28;20117;-62
2020/12/20 06:12:25;;;;;;;9.90;5.80;;;;;;;3.08;76.39;94414.53;5099879;28;20043;-62
2020/12/20 06:14:51;;;;;;;14.65;6.80;;;;;;;3.16;76.10;94417.63;5089883;28;20028;-63
2020/12/20 06:17:24;;;;;;;12.25;6.60;;;;;;;2.99;76.33;94409.19;5084390;28;20031;-62
2020/12/20 06:19:58;;;;;;;12.52;6.45;;;;;;;2.95;76.05;94414.88;5084095;28;20043;-62
2020/12/20 06:22:41;;;;;;;9.77;6.05;;;;;;;3.05;76.17;94429.88;5088852;28;20059;-61
2020/12/20 06:25:07;;;;;;;12.63;6.63;;;;;;;2.94;76.93;94423.53;5097964;28;20452;-61
2020/12/20 06:27:34;;;;;;;15.02;8.18;;;;;;;2.89;76.37;94416.78;5084138;28;20054;-62
2020/12/20 06:30:03;;;;;;;13.10;7.78;;;;;;;2.98;76.92;94427.56;5098926;28;20467;-62
2020/12/20 06:32:44;;;;;;;15.55;8.27;;;;;;;3.06;76.77;94433.34;5094548;28;20024;-62
2020/12/20 06:35:14;;;;;;;16.15;8.40;;;;;;;2.97;77.01;94426.06;5085108;28;20044;-62
2020/12/20 06:37:42;;;;;;;13.50;8.63;;;;;;;3.02;76.43;94435.53;5094488;28;20028;-62
2020/12/20 06:40:07;;;;;;;14.65;8.43;;;;;;;2.99;76.21;94431.03;5085252;28;20028;-62
2020/12/20 06:42:38;;;;;;;15.35;8.40;;;;;;;2.94;76.95;94434.44;5091850;28;20035;-62
2020/12/20 06:45:24;;;;;;;17.23;8.90;;;;;;;2.97;77.17;94433.47;5086212;28;20492;-62
2020/12/20 06:48:00;;;;;;;15.95;8.23;;;;;;;3.04;77.23;94430.34;5094307;28;20019;-62
2020/12/20 06:50:48;;;;;;;14.35;7.95;;;;;;;3.24;76.75;94435.84;5085588;28;20033;-62
2020/12/20 06:53:15;;;;;;;14.60;9.15;;;;;;;3.34;75.70;94442.66;5084584;28;20024;-62
2020/12/20 06:55:41;;;;;;;15.27;8.27;;;;;;;3.35;75.73;94441.44;5092226;28;20498;-62
2020/12/20 06:58:12;;;;;;;17.55;7.60;;;;;;;3.44;75.77;94438.56;5081904;28;20095;-62
2020/12/20 07:00:38;;;;;;;15.02;8.07;;;;;;;3.43;75.53;94439.78;5084765;28;20146;-62
2020/12/20 07:03:03;;;;;;;16.48;8.15;;;;;;;3.34;75.51;94448.09;5085844;28;20172;-62
2020/12/20 07:05:40;;;;;;;15.70;9.45;;;;;;;3.43;75.26;94447.97;5070450;28;20469;-62
2020/12/20 07:08:09;;;;;;;18.83;10.15;;;;;;;3.31;75.05;94446.34;5081036;28;21875;-62
2020/12/20 07:10:58;;;;;;;;;;;;;;;3.39;75.28;94449.41;5090242;28;20043;-62
2020/12/20 07:13:29;;;;;;;;;;;;;;;3.38;76.21;94453.38;5071102;28;19920;-62
2020/12/20 07:16:03;;;;;;;47.35;21.80;;;;;;;3.40;76.02;94453.66;5084511;28;20415;-62
2020/12/20 07:18:58;;;;;;;21.80;11.48;;;;;;;3.52;76.00;94456.03;5077956;28;20384;-62
2020/12/20 07:21:23;;;;;;;14.82;7.70;;;;;;;3.57;75.36;94460.78;5095163;28;20027;-62
2020/12/20 07:23:53;;;;;;;23.50;12.63;;;;;;;3.35;75.76;94457.81;5089860;28;20027;-62
2020/12/20 07:26:22;;;;;;;18.90;11.65;;;;;;;3.36;76.36;94458.53;5091222;28;21894;-62
2020/12/20 07:28:48;;;;;;;23.80;12.38;;;;;;;3.43;76.11;94463.59;5078281;28;20032;-62
2020/12/20 07:31:18;;;;;;;20.30;13.02;;;;;;;3.37;76.27;94454.59;5091324;28;20043;-62
2020/12/20 07:33:45;;;;;;;15.50;10.50;;;;;;;3.57;75.62;94460.06;5081640;28;20500;-62
2020/12/20 07:36:11;;;;;;;14.77;9.27;;;;;;;3.62;75.44;94456.63;5090976;28;20023;-62
2020/12/20 07:38:36;;;;;;;14.63;9.38;;;;;;;3.52;75.55;94453.31;5088619;28;20410;-62
2020/12/20 07:41:08;;;;;;;75.45;31.33;;;;;;;3.57;75.39;94458.06;5083027;28;20047;-62
2020/12/20 07:43:34;;;;;;;69.40;32.00;;;;;;;3.55;74.93;94454.31;5082215;28;20026;-62
2020/12/20 07:46:02;;;;;;;53.50;28.75;;;;;;;3.52;75.34;94455.28;5091572;28;20467;-62
2020/12/20 07:48:27;;;;;;;38.80;20.50;;;;;;;3.65;74.94;94456.44;5082275;28;20016;-62
2020/12/20 07:51:08;;;;;;;14.00;9.18;;;;;;;3.77;74.90;94460.03;5086013;28;20557;-62
2020/12/20 07:53:34;;;;;;;15.25;8.63;;;;;;;3.87;74.16;94458.66;5087076;28;20474;-62
2020/12/20 07:56:00;;;;;;;21.73;12.02;;;;;;;3.89;74.07;94466.38;5087351;28;20019;-62
2020/12/20 07:58:25;;;;;;;23.58;11.60;;;;;;;3.93;74.04;94462.19;5089526;28;20031;-61
2020/12/20 08:01:04;;;;;;;45.63;19.25;;;;;;;3.78;74.22;94458.81;5090809;28;20031;-62
2020/12/20 08:03:29;;;;;;;;;;;;;;;3.94;73.46;94462.94;5095271;28;20024;-62
2020/12/20 08:06:08;;;;;;;14.32;8.38;;;;;;;3.60;72.85;94464.53;5090494;27;19912;-62
2020/12/20 08:08:34;;;;;;;12.85;7.82;;;;;;;3.13;74.43;94471.16;5080727;28;20016;-62
2020/12/20 08:11:02;;;;;;;13.77;6.93;;;;;;;3.17;75.39;94460.03;5087645;28;20039;-62
2020/12/20 08:13:28;;;;;;;13.02;6.25;;;;;;;3.40;74.23;94465.31;5080137;28;20023;-62
2020/12/20 08:15:54;;;;;;;11.75;6.97;;;;;;;3.46;74.14;94466.13;5066902;28;20482;-62
2020/12/20 08:18:20;;;;;;;13.07;7.00;;;;;;;3.59;73.66;94466.53;5085698;28;20020;-62
2020/12/20 08:20:45;;;;;;;19.70;10.35;;;;;;;3.65;73.54;94463.88;5091791;28;20031;-62
2020/12/20 08:23:11;;;;;;;18.42;9.88;;;;;;;3.50;73.85;94469.41;5080504;28;20440;-62
2020/12/20 08:25:37;;;;;;;19.98;10.98;;;;;;;3.35;75.50;94468.72;5076928;28;20020;-62
2020/12/20 08:28:02;;;;;;;20.80;10.30;;;;;;;3.50;75.21;94463.19;5082319;28;20043;-62
2020/12/20 08:30:28;;;;;;;17.92;10.48;;;;;;;3.57;75.33;94468.97;5089708;28;20062;-62
2020/12/20 08:32:53;;;;;;;17.25;9.75;;;;;;;3.69;74.54;94472.59;5093041;27;20437;-62
2020/12/20 08:35:24;;;;;;;13.38;7.53;;;;;;;3.72;73.01;94464.22;5085794;28;20568;-62
2020/12/20 08:37:55;;;;;;;15.23;7.80;;;;;;;3.76;73.26;94464.75;5085520;28;20023;-62
2020/12/20 08:40:23;;;;;;;16.58;9.50;;;;;;;3.69;74.03;94465.16;5079956;28;20468;-62
2020/12/20 08:42:52;;;;;;;18.30;10.90;;;;;;;3.71;74.15;94468.16;5054591;28;20578;-61
2020/12/20 08:45:19;;;;;;;17.50;10.32;;;;;;;3.82;74.01;94473.00;5072731;28;20870;-61
2020/12/20 08:47:45;;;;;;;17.88;9.52;;;;;;;3.95;73.27;94467.16;5082132;28;20027;-62
2020/12/20 08:50:12;;;;;;;14.05;8.00;;;;;;;4.04;72.34;94467.00;5075592;28;20028;-61
2020/12/20 08:52:37;;;;;;;13.10;6.35;;;;;;;3.97;72.19;94465.47;5071163;28;20032;-62
2020/12/20 08:55:05;;;;;;;12.05;6.97;;;;;;;3.82;72.38;94459.34;5072255;28;20082;-61
2020/12/20 08:57:31;;;;;;;13.88;8.55;;;;;;;3.76;72.65;94464.75;5070868;28;20024;-62
2020/12/20 09:00:11;;;;;;;11.65;7.32;;;;;;;3.90;73.66;94463.13;5083885;28;20032;-62
2020/12/20 09:02:36;;;;;;;16.15;8.55;;;;;;;3.79;73.49;94465.75;5082860;28;21744;-60
2020/12/20 09:05:11;;;;;;;14.18;8.18;;;;;;;3.78;74.17;94462.28;5079933;28;20038;-61
2020/12/20 09:07:41;;;;;;;14.85;8.60;;;;;;;3.96;73.57;94463.97;5080927;28;20012;-61
2020/12/20 09:10:33;;;;;;;13.68;7.72;;;;;;;3.89;73.19;94453.47;5080921;28;20085;-61
2020/12/20 09:13:01;;;;;;;18.95;7.55;;;;;;;3.81;74.00;94457.84;5075908;28;20056;-62
2020/12/20 09:15:29;;;;;;;13.30;6.22;;;;;;;4.02;72.75;94462.03;5079551;28;20112;-63
2020/12/20 09:17:59;;;;;;;13.40;7.38;;;;;;;4.20;72.95;94458.25;5074578;28;20062;-63
2020/12/20 09:20:29;;;;;;;16.58;9.38;;;;;;;4.27;72.81;94458.53;5075740;28;20036;-62
2020/12/20 09:22:56;;;;;;;15.32;9.20;;;;;;;4.33;72.52;94456.59;5082530;28;20035;-62
2020/12/20 09:25:30;;;;;;;16.17;8.88;;;;;;;4.46;72.67;94459.69;5080775;28;21377;-63
2020/12/20 09:28:00;;;;;;;20.15;9.32;;;;;;;4.39;72.51;94462.91;5069033;28;20515;-62
2020/12/20 09:30:36;;;;;;;16.67;9.27;;;;;;;4.23;73.11;94458.00;5081501;28;20051;-62
2020/12/20 09:33:24;;;;;;;17.67;9.27;;;;;;;4.34;72.83;94452.66;5069136;28;20036;-62
2020/12/20 09:36:07;;;;;;;17.95;10.07;;;;;;;4.35;73.00;94454.13;5082044;28;20028;-62
2020/12/20 09:38:41;;;;;;;20.75;10.65;;;;;;;4.45;73.29;94457.47;5081858;28;20038;-62
2020/12/20 09:41:09;;;;;;;23.17;10.27;;;;;;;4.53;72.25;94451.06;5070951;28;20039;-62
2020/12/20 09:43:35;;;;;;;28.10;15.77;;;;;;;4.55;72.09;94451.31;5074309;28;20496;-63
2020/12/20 09:46:00;;;;;;;26.95;14.43;;;;;;;4.59;72.24;94451.13;5073078;28;20038;-63
2020/12/20 09:48:29;;;;;;;30.27;15.75;;;;;;;4.53;72.11;94451.06;5072640;28;20023;-62
2020/12/20 09:50:55;;;;;;;19.10;10.13;;;;;;;4.65;71.84;94448.41;5070561;28;21490;-63
2020/12/20 09:53:21;;;;;;;14.95;9.35;;;;;;;4.75;71.65;94450.47;5076547;28;20036;-63
2020/12/20 09:55:47;;;;;;;14.98;8.88;;;;;;;4.83;71.55;94448.78;5073856;28;20028;-63
2020/12/20 09:58:13;;;;;;;14.45;8.82;;;;;;;4.85;71.28;94443.56;5074445;28;20046;-63
2020/12/20 10:00:39;;;;;;;11.07;7.35;;;;;;;4.76;71.06;94443.78;5081789;28;20059;-64
2020/12/20 10:03:06;;;;;;;18.50;7.28;;;;;;;4.77;71.07;94437.06;5080849;28;20097;-62
2020/12/20 10:05:32;;;;;;;18.65;8.80;;;;;;;4.86;70.77;94438.88;5076345;28;20818;-62
2020/12/20 10:07:58;;;;;;;16.20;8.98;;;;;;;4.92;70.66;94442.38;5081644;28;20064;-63
2020/12/20 10:10:23;;;;;;;21.00;11.13;;;;;;;4.86;70.64;94436.88;5086983;28;20047;-62
2020/12/20 10:12:49;;;;;;;16.40;7.07;;;;;;;4.76;70.76;94440.28;5088606;28;20031;-63
2020/12/20 10:37:05;;;;;;;10.50;6.57;;;;;;;4.47;71.17;94401.06;5979319;23;21052;-47
2020/12/20 10:39:30;;;;;;;13.43;7.05;;;;;;;4.48;71.48;94401.81;4950250;28;20134;-47
2020/12/20 10:41:56;;;;;;;20.92;10.95;;;;;;;4.58;71.23;94398.41;5015149;23;20006;-48
2020/12/20 10:44:22;;;;;;;11.93;6.78;;;;;;;4.59;71.44;94401.91;4968226;28;20515;-53
2020/12/20 10:49:29;;;;;;;11.63;6.38;;;;;;;4.66;70.74;94400.69;5384312;23;20059;-55
2020/12/20 10:51:55;;;;;;;9.48;5.97;;;;;;;4.68;71.28;94403.69;4971776;28;20413;-48
2020/12/20 10:54:21;;;;;;;11.05;6.28;;;;;;;4.71;70.35;94403.47;4972102;28;20041;-43
2020/12/20 10:56:48;;;;;;;9.23;5.97;;;;;;;4.67;70.45;94383.78;4964808;28;20023;-49
2020/12/20 10:59:13;;;;;;;16.48;8.88;;;;;;;4.83;70.70;94394.06;4972135;28;20037;-62
2020/12/20 11:01:39;;;;;;;12.98;7.28;;;;;;;4.80;71.33;94403.28;4953330;29;20118;-48
2020/12/20 11:04:06;;;;;;;17.38;8.90;;;;;;;4.70;71.05;94406.69;4954434;28;20107;-56
2020/12/20 11:06:32;;;;;;;18.92;8.98;;;;;;;4.71;71.30;94406.19;4968162;28;20023;-62
2020/12/20 11:08:57;;;;;;;23.42;13.25;;;;;;;4.68;71.56;94409.16;4971667;28;20046;-47
2020/12/20 11:11:31;;;;;;;21.20;11.70;;;;;;;4.69;71.76;94411.41;4972446;28;20105;-46
2020/12/20 11:13:58;;;;;;;18.48;10.80;;;;;;;4.50;71.73;94410.28;4972461;28;20037;-46
2020/12/20 11:16:24;;;;;;;15.20;8.52;;;;;;;4.38;71.69;94400.47;5345207;23;20105;-52
2020/12/20 11:18:49;;;;;;;13.65;7.70;;;;;;;3.93;73.91;94399.34;4991113;28;20490;-62
2020/12/20 11:21:17;;;;;;;14.27;8.07;;;;;;;4.17;73.78;94396.34;4992654;28;20038;-56
2020/12/20 11:23:43;;;;;;;13.35;8.10;;;;;;;4.14;73.22;94403.50;4995101;28;20050;-59
2020/12/20 11:26:16;;;;;;;17.40;7.93;;;;;;;4.15;72.59;94391.38;4995162;28;20030;-62
2020/12/20 11:28:43;;;;;;;14.10;8.32;;;;;;;4.27;72.02;94392.19;4995142;28;20490;-57
2020/12/20 11:37:03;;;;;;;12.80;7.35;;;;;;;4.10;72.56;94394.03;5279450;23;20070;-45
2020/12/20 11:39:29;;;;;;;18.65;7.75;;;;;;;4.11;72.49;94392.81;4955430;29;20035;-62
2020/12/20 11:41:54;;;;;;;15.10;8.40;;;;;;;4.03;73.34;94399.94;4956137;29;20106;-47
2020/12/20 11:44:21;;;;;;;12.48;7.93;;;;;;;4.06;74.06;94391.53;4956089;29;20031;-57
2020/12/20 11:46:46;;;;;;;14.05;9.02;;;;;;;4.19;72.93;94391.13;5061076;23;20059;-52
2020/12/20 11:49:12;;;;;;;15.50;8.95;;;;;;;4.27;73.19;94392.94;4974809;28;20049;-57
2020/12/20 11:51:37;;;;;;;17.50;9.60;;;;;;;4.20;73.28;94385.19;4976471;28;20035;-56
2020/12/20 11:54:02;;;;;;;24.60;13.27;;;;;;;4.11;73.88;94379.91;4973302;28;20155;-57
2020/12/20 11:56:28;;;;;;;18.25;10.68;;;;;;;4.02;75.10;94380.06;4980525;28;20035;-59
2020/12/20 11:58:54;;;;;;;15.68;9.85;;;;;;;4.05;74.79;94370.88;4974946;28;20058;-54
2020/12/20 12:01:23;;;;;;;18.05;9.82;;;;;;;4.30;73.83;94386.50;4971818;28;20466;-57
2020/12/20 12:03:49;;;;;;;23.38;11.57;;;;;;;4.32;74.04;94386.78;4974149;28;20113;-50
2020/12/20 12:06:15;;;;;;;23.33;12.32;;;;;;;4.31;74.60;94381.81;4978023;28;20114;-53